• Join FlightAware (Why Join?)
  • Login
  • US Flag 
08:57AM EDT


 

Airport Tracker/Info


-or-


 

Live Flight TrackerFlight Track Log ✈ HA116 ✈ 24-Jun-2013 ✈ CYVR - CYXT

Flight Track Log - Related Links

Times and Time Zones

All times are in EDT time to prevent confusion due to time zone crossing. See the HA116 flight status page for this flight to view local times or setup timezone preferences in your user account.

Time Position Orientation Groundspeed Altitude Reporting Facility
EDT Latitude Longitude Course Direction KTS MPH feet Rate Location/Type
10:12PM 49.7500 -123.3333 316° Northwest 210 242 16,900  Level Vancouver Center
10:13PM 49.7833 -123.3833 316° Northwest 210 242 17,600 780 Climbing Vancouver Center
10:14PM 49.8500 -123.4333 334° Northwest 220 253 18,500 660 Climbing Vancouver Center
10:15PM 49.8833 -123.4833 316° Northwest 220 253 19,000 600 Climbing Vancouver Center
10:16PM 49.9500 -123.5333 334° Northwest 220 253 19,700 600 Climbing Vancouver Center
10:17PM 50.0000 -123.5833 327° Northwest 220 253 20,200 540 Climbing Vancouver Center
10:18PM 50.0333 -123.6500 308° West 220 253 20,800 480 Climbing Vancouver Center
10:19PM 50.1000 -123.7167 327° Northwest 220 253 21,200 420 Climbing Vancouver Center
10:20PM 50.1500 -123.7667 327° Northwest 220 253 21,700 360 Climbing Vancouver Center
10:21PM 50.2000 -123.8167 327° Northwest 220 253 22,000 120 Climbing Vancouver Center
10:22PM 50.2500 -123.8833 320° Northwest 240 276 22,000  Level Vancouver Center
10:23PM 50.3167 -123.9500 327° Northwest 260 299 22,000  Level Vancouver Center
10:24PM 50.3667 -124.0000 327° Northwest 260 299 22,000  Level Vancouver Center
10:25PM 50.4333 -124.0833 321° Northwest 270 311 22,000  Level Vancouver Center
10:26PM 50.5000 -124.1333 334° Northwest 270 311 22,000  Level Vancouver Center
10:27PM 50.5500 -124.2167 313° West 270 311 22,000  Level Vancouver Center
10:28PM 50.6167 -124.2667 335° Northwest 280 322 22,000  Level Vancouver Center
10:29PM 50.6833 -124.3500 322° Northwest 270 311 22,000  Level Vancouver Center
10:30PM 50.7333 -124.4333 313° West 270 311 22,000  Level Vancouver Center
10:31PM 50.8000 -124.4833 335° Northwest 260 299 22,000  Level Vancouver Center
10:32PM 50.8667 -124.5667 322° Northwest 260 299 22,000  Level Vancouver Center
10:33PM 50.9167 -124.6167 328° Northwest 260 299 22,000  Level Vancouver Center
10:34PM 50.9833 -124.7000 322° Northwest 270 311 22,000  Level Vancouver Center
10:35PM 51.0500 -124.7500 335° Northwest 260 299 22,000  Level Vancouver Center
10:36PM 51.1000 -124.8333 314° West 260 299 22,000  Level Vancouver Center
10:37PM 51.1667 -124.8833 335° Northwest 260 299 22,000  Level Vancouver Center
10:38PM 51.2167 -124.9667 314° West 270 311 22,000  Level Vancouver Center
10:39PM 51.2833 -125.0333 328° Northwest 260 299 22,000  Level Vancouver Center
10:40PM 51.3500 -125.1000 328° Northwest 270 311 22,000  Level Vancouver Center
10:41PM 51.4000 -125.1667 320° Northwest 260 299 22,000  Level Vancouver Center
10:42PM 51.4667 -125.2500 322° Northwest 260 299 22,000  Level Vancouver Center
10:43PM 51.5167 -125.3000 328° Northwest 260 299 22,000  Level Vancouver Center
10:44PM 51.5833 -125.3833 322° Northwest 260 299 22,000  Level Vancouver Center
10:45PM 51.6500 -125.4333 335° Northwest 260 299 22,000  Level Vancouver Center
10:46PM 51.7000 -125.5167 314° West 260 299 22,000  Level Vancouver Center
10:47PM 51.7667 -125.6000 322° Northwest 260 299 22,000  Level Vancouver Center
10:48PM 51.8167 -125.6667 321° Northwest 260 299 22,000  Level Vancouver Center
10:49PM 51.8833 -125.7500 322° Northwest 260 299 22,000  Level Vancouver Center
10:50PM 51.9333 -125.8000 328° Northwest 270 311 22,000  Level Vancouver Center
10:51PM 52.0000 -125.8833 322° Northwest 260 299 22,000  Level Vancouver Center
10:52PM 52.0500 -125.9500 321° Northwest 260 299 22,000  Level Vancouver Center
10:53PM 52.1000 -126.0333 314° West 260 299 22,000  Level Vancouver Center
10:54PM 52.1667 -126.0833 335° Northwest 260 299 22,000  Level Vancouver Center
10:55PM 52.2167 -126.1667 314° West 260 299 22,000  Level Vancouver Center
10:56PM 52.2833 -126.2333 329° Northwest 260 299 22,000  Level Vancouver Center
10:57PM 52.3333 -126.2833 329° Northwest 260 299 22,000  Level Vancouver Center
10:58PM 52.4000 -126.3667 323° Northwest 260 299 22,000  Level Vancouver Center
10:59PM 52.4500 -126.4333 321° Northwest 260 299 22,000  Level Vancouver Center
11:00PM 52.5167 -126.5167 323° Northwest 260 299 22,000  Level Vancouver Center
11:01PM 52.5833 -126.5667 336° Northwest 260 299 22,000  Level Vancouver Center
11:02PM 52.6333 -126.6500 315° West 260 299 22,000  Level Vancouver Center
11:03PM 52.7000 -126.7167 329° Northwest 260 299 22,000  Level Vancouver Center
11:04PM 52.7500 -126.8000 315° West 260 299 22,000  Level Vancouver Center
11:05PM 52.8000 -126.8667 321° Northwest 260 299 22,000  Level Vancouver Center
11:06PM 52.8667 -126.9500 323° Northwest 270 311 22,000  Level Vancouver Center
11:07PM 52.9167 -127.0167 321° Northwest 270 311 22,000  Level Vancouver Center
11:08PM 52.9833 -127.1000 323° Northwest 270 311 22,000  Level Vancouver Center
11:09PM 53.0500 -127.1500 336° Northwest 280 322 22,000  Level Vancouver Center
11:10PM 53.1000 -127.2500 310° West 260 299 22,000  Level Vancouver Center
11:11PM 53.1667 -127.3000 336° Northwest 260 299 22,000  Level Vancouver Center
11:12PM 53.2167 -127.4000 310° West 250 288 22,000  Level Vancouver Center
11:13PM 53.2667 -127.4500 329° Northwest 260 299 22,000  Level Vancouver Center
11:14PM 53.3167 -127.5500 310° West 270 311 22,000  Level Vancouver Center
11:15PM 53.3833 -127.6000 336° Northwest 260 299 22,000  Level Vancouver Center
11:16PM 53.4500 -127.7000 318° Northwest 260 299 22,000 -420 Level Vancouver Center
11:17PM 53.5000 -127.7500 329° Northwest 270 311 21,200 -1,080 Descending Vancouver Center
11:18PM 53.5667 -127.8500 318° Northwest 300 345 19,900 -1,320 Descending Vancouver Center
11:19PM 53.6500 -127.9333 329° Northwest 320 368 18,600 -1,500 Descending Vancouver Center
11:20PM 53.7000 -128.0333 310° West 320 368 17,000 -1,500 Descending Vancouver Center
11:21PM 53.7667 -128.1167 324° Northwest 320 368 15,700 -1,320 Descending Vancouver Center
11:22PM 53.8500 -128.2167 325° Northwest 330 380 14,400 -1,380 Descending Vancouver Center
11:23PM 53.9167 -128.3000 324° Northwest 310 357 13,000 -1,440 Descending Vancouver Center
11:24PM 53.9833 -128.4000 319° Northwest 300 345 11,600 -1,380 Descending Vancouver Center
11:25PM 54.0333 -128.4833 316° Northwest 300 345 10,300 -1,320 Descending Vancouver Center
11:26PM 54.1000 -128.5167 344° North 280 322 9,000 -1,320 Descending Vancouver Center
11:28PM 54.2144 -128.5167 North  Level FlightAware Approximate
11:35PM 54.4667 -128.5667 352° North  Level FlightAware Approximate
11:36PM 54.4664 -128.5775 352° North  Level Estimated
11:37PM 54.4667 -128.5667 352° North  Level FlightAware Approximate
11:38PM 54.4664 -128.5775 352° North  Level Estimated
11:39PM 54.4667 -128.5667 352° North  Level FlightAware Approximate
11:40PM 54.4664 -128.5775 352° North  Level Estimated